sensor_id;sensor_type;location;lat;lon;timestamp;P1;durP1;ratioP1;P2;durP2;ratioP2
2824;SDS011;1420;51.324;12.344;2023-05-10T00:00:29;948.70;;;886.08;;
2824;SDS011;1420;51.324;12.344;2023-05-10T00:02:57;968.92;;;900.54;;
2824;SDS011;1420;51.324;12.344;2023-05-10T00:05:25;927.82;;;866.08;;
2824;SDS011;1420;51.324;12.344;2023-05-10T00:07:53;958.80;;;894.48;;
2824;SDS011;1420;51.324;12.344;2023-05-10T00:10:20;932.68;;;871.54;;
2824;SDS011;1420;51.324;12.344;2023-05-10T00:12:47;960.82;;;896.16;;
2824;SDS011;1420;51.324;12.344;2023-05-10T00:15:15;953.08;;;887.18;;
2824;SDS011;1420;51.324;12.344;2023-05-10T00:17:42;941.14;;;878.92;;
2824;SDS011;1420;51.324;12.344;2023-05-10T00:20:10;928.88;;;868.84;;
2824;SDS011;1420;51.324;12.344;2023-05-10T00:22:38;986.10;;;918.08;;
2824;SDS011;1420;51.324;12.344;2023-05-10T00:25:06;957.98;;;896.00;;
2824;SDS011;1420;51.324;12.344;2023-05-10T00:27:34;941.18;;;879.24;;
2824;SDS011;1420;51.324;12.344;2023-05-10T00:30:01;942.86;;;880.24;;
2824;SDS011;1420;51.324;12.344;2023-05-10T00:32:29;998.38;;;928.82;;
2824;SDS011;1420;51.324;12.344;2023-05-10T00:34:57;913.06;;;852.88;;
2824;SDS011;1420;51.324;12.344;2023-05-10T00:37:24;958.48;;;890.02;;
2824;SDS011;1420;51.324;12.344;2023-05-10T00:39:51;914.46;;;856.20;;
2824;SDS011;1420;51.324;12.344;2023-05-10T00:42:19;917.00;;;857.42;;
2824;SDS011;1420;51.324;12.344;2023-05-10T00:44:46;1123.42;;;999.90;;
2824;SDS011;1420;51.324;12.344;2023-05-10T00:47:13;924.42;;;863.20;;
2824;SDS011;1420;51.324;12.344;2023-05-10T00:49:40;935.88;;;872.58;;
2824;SDS011;1420;51.324;12.344;2023-05-10T00:52:08;951.84;;;892.18;;
2824;SDS011;1420;51.324;12.344;2023-05-10T00:54:35;914.88;;;855.16;;
2824;SDS011;1420;51.324;12.344;2023-05-10T00:57:02;1029.14;;;960.28;;
2824;SDS011;1420;51.324;12.344;2023-05-10T00:59:30;1081.08;;;989.50;;
2824;SDS011;1420;51.324;12.344;2023-05-10T01:01:57;955.66;;;892.04;;
2824;SDS011;1420;51.324;12.344;2023-05-10T01:04:24;946.04;;;883.22;;
2824;SDS011;1420;51.324;12.344;2023-05-10T01:06:52;940.26;;;879.38;;
2824;SDS011;1420;51.324;12.344;2023-05-10T01:09:19;946.58;;;883.48;;
2824;SDS011;1420;51.324;12.344;2023-05-10T01:11:46;955.10;;;891.54;;
2824;SDS011;1420;51.324;12.344;2023-05-10T01:14:13;952.98;;;889.00;;
2824;SDS011;1420;51.324;12.344;2023-05-10T01:16:41;951.58;;;885.76;;
2824;SDS011;1420;51.324;12.344;2023-05-10T01:19:26;1006.96;;;939.40;;
2824;SDS011;1420;51.324;12.344;2023-05-10T01:24:53;934.78;;;872.22;;
2824;SDS011;1420;51.324;12.344;2023-05-10T01:27:41;1063.84;;;978.06;;
2824;SDS011;1420;51.324;12.344;2023-05-10T01:33:11;1062.30;;;979.12;;
2824;SDS011;1420;51.324;12.344;2023-05-10T01:35:43;965.24;;;901.98;;
2824;SDS011;1420;51.324;12.344;2023-05-10T01:38:18;941.00;;;878.10;;
2824;SDS011;1420;51.324;12.344;2023-05-10T01:40:52;890.76;;;829.82;;
2824;SDS011;1420;51.324;12.344;2023-05-10T01:43:19;953.44;;;889.34;;
2824;SDS011;1420;51.324;12.344;2023-05-10T01:45:47;943.82;;;882.58;;
2824;SDS011;1420;51.324;12.344;2023-05-10T01:48:14;1053.94;;;966.26;;
2824;SDS011;1420;51.324;12.344;2023-05-10T01:50:42;1035.86;;;958.40;;
2824;SDS011;1420;51.324;12.344;2023-05-10T01:53:09;936.56;;;873.36;;
2824;SDS011;1420;51.324;12.344;2023-05-10T01:55:41;976.04;;;910.30;;
2824;SDS011;1420;51.324;12.344;2023-05-10T01:58:17;952.32;;;887.68;;
2824;SDS011;1420;51.324;12.344;2023-05-10T02:00:51;951.66;;;889.06;;
2824;SDS011;1420;51.324;12.344;2023-05-10T02:03:20;933.26;;;871.56;;
2824;SDS011;1420;51.324;12.344;2023-05-10T02:05:46;955.20;;;894.16;;
2824;SDS011;1420;51.324;12.344;2023-05-10T02:08:13;971.22;;;907.06;;
2824;SDS011;1420;51.324;12.344;2023-05-10T02:10:41;986.76;;;919.92;;
2824;SDS011;1420;51.324;12.344;2023-05-10T02:13:09;954.16;;;887.92;;
2824;SDS011;1420;51.324;12.344;2023-05-10T02:15:36;982.04;;;915.06;;
2824;SDS011;1420;51.324;12.344;2023-05-10T02:18:04;936.90;;;873.52;;
2824;SDS011;1420;51.324;12.344;2023-05-10T02:20:31;949.86;;;887.24;;
2824;SDS011;1420;51.324;12.344;2023-05-10T02:22:58;956.66;;;893.88;;
2824;SDS011;1420;51.324;12.344;2023-05-10T02:25:26;961.78;;;895.70;;
2824;SDS011;1420;51.324;12.344;2023-05-10T02:27:56;911.58;;;851.86;;
2824;SDS011;1420;51.324;12.344;2023-05-10T02:30:21;963.20;;;897.86;;
2824;SDS011;1420;51.324;12.344;2023-05-10T02:32:49;940.02;;;877.64;;
2824;SDS011;1420;51.324;12.344;2023-05-10T02:35:15;970.72;;;905.84;;
2824;SDS011;1420;51.324;12.344;2023-05-10T02:37:43;968.76;;;905.20;;
2824;SDS011;1420;51.324;12.344;2023-05-10T02:40:10;926.38;;;865.18;;
2824;SDS011;1420;51.324;12.344;2023-05-10T02:42:37;903.06;;;843.46;;
2824;SDS011;1420;51.324;12.344;2023-05-10T02:45:07;912.96;;;851.54;;
2824;SDS011;1420;51.324;12.344;2023-05-10T02:47:34;987.90;;;923.08;;
2824;SDS011;1420;51.324;12.344;2023-05-10T02:50:01;946.86;;;883.10;;
2824;SDS011;1420;51.324;12.344;2023-05-10T02:52:30;880.30;;;823.46;;
2824;SDS011;1420;51.324;12.344;2023-05-10T02:54:58;913.30;;;852.96;;
2824;SDS011;1420;51.324;12.344;2023-05-10T02:57:26;964.24;;;895.58;;
2824;SDS011;1420;51.324;12.344;2023-05-10T02:59:52;934.56;;;870.70;;
2824;SDS011;1420;51.324;12.344;2023-05-10T03:02:20;1041.22;;;967.50;;
2824;SDS011;1420;51.324;12.344;2023-05-10T03:04:46;944.28;;;879.62;;
2824;SDS011;1420;51.324;12.344;2023-05-10T03:07:13;964.56;;;899.74;;
2824;SDS011;1420;51.324;12.344;2023-05-10T03:09:41;944.00;;;881.36;;
2824;SDS011;1420;51.324;12.344;2023-05-10T03:12:11;988.40;;;920.58;;
2824;SDS011;1420;51.324;12.344;2023-05-10T03:14:57;935.68;;;873.68;;
2824;SDS011;1420;51.324;12.344;2023-05-10T03:17:33;997.38;;;926.98;;
2824;SDS011;1420;51.324;12.344;2023-05-10T03:20:04;1005.36;;;937.30;;
2824;SDS011;1420;51.324;12.344;2023-05-10T03:22:33;980.52;;;913.82;;
2824;SDS011;1420;51.324;12.344;2023-05-10T03:25:00;974.64;;;906.80;;
2824;SDS011;1420;51.324;12.344;2023-05-10T03:27:28;1027.30;;;954.72;;
2824;SDS011;1420;51.324;12.344;2023-05-10T03:29:55;1052.80;;;973.24;;
2824;SDS011;1420;51.324;12.344;2023-05-10T03:32:23;973.62;;;907.08;;
2824;SDS011;1420;51.324;12.344;2023-05-10T03:34:50;966.18;;;899.04;;
2824;SDS011;1420;51.324;12.344;2023-05-10T03:37:18;989.92;;;921.00;;
2824;SDS011;1420;51.324;12.344;2023-05-10T03:39:45;998.52;;;925.86;;
2824;SDS011;1420;51.324;12.344;2023-05-10T03:42:12;1015.38;;;941.96;;
2824;SDS011;1420;51.324;12.344;2023-05-10T03:44:39;1067.76;;;984.90;;
2824;SDS011;1420;51.324;12.344;2023-05-10T03:47:07;1051.94;;;970.48;;
2824;SDS011;1420;51.324;12.344;2023-05-10T03:49:35;982.74;;;914.30;;
2824;SDS011;1420;51.324;12.344;2023-05-10T03:52:03;1004.30;;;933.60;;
2824;SDS011;1420;51.324;12.344;2023-05-10T03:54:30;1055.60;;;975.92;;
2824;SDS011;1420;51.324;12.344;2023-05-10T03:56:57;971.24;;;904.98;;
2824;SDS011;1420;51.324;12.344;2023-05-10T03:59:24;1005.28;;;939.36;;
2824;SDS011;1420;51.324;12.344;2023-05-10T04:01:52;945.08;;;879.88;;
2824;SDS011;1420;51.324;12.344;2023-05-10T04:04:19;989.34;;;923.58;;
2824;SDS011;1420;51.324;12.344;2023-05-10T04:06:46;982.76;;;915.08;;
2824;SDS011;1420;51.324;12.344;2023-05-10T04:09:13;1034.14;;;955.28;;
2824;SDS011;1420;51.324;12.344;2023-05-10T04:11:40;1002.42;;;933.44;;
2824;SDS011;1420;51.324;12.344;2023-05-10T04:14:08;979.06;;;910.04;;
2824;SDS011;1420;51.324;12.344;2023-05-10T04:16:36;1001.56;;;932.74;;
2824;SDS011;1420;51.324;12.344;2023-05-10T04:19:03;968.16;;;904.10;;
2824;SDS011;1420;51.324;12.344;2023-05-10T04:21:30;938.74;;;875.44;;
2824;SDS011;1420;51.324;12.344;2023-05-10T04:23:57;944.00;;;881.60;;
2824;SDS011;1420;51.324;12.344;2023-05-10T04:26:25;1038.42;;;941.78;;
2824;SDS011;1420;51.324;12.344;2023-05-10T04:28:52;974.36;;;908.06;;
2824;SDS011;1420;51.324;12.344;2023-05-10T04:31:20;1012.44;;;938.80;;
2824;SDS011;1420;51.324;12.344;2023-05-10T04:33:47;921.56;;;863.96;;
2824;SDS011;1420;51.324;12.344;2023-05-10T04:36:14;929.44;;;868.88;;
2824;SDS011;1420;51.324;12.344;2023-05-10T04:38:41;939.32;;;878.16;;
2824;SDS011;1420;51.324;12.344;2023-05-10T04:41:09;952.58;;;891.88;;
2824;SDS011;1420;51.324;12.344;2023-05-10T04:43:36;894.80;;;838.86;;
2824;SDS011;1420;51.324;12.344;2023-05-10T04:46:03;938.38;;;875.62;;
2824;SDS011;1420;51.324;12.344;2023-05-10T04:48:31;987.66;;;919.40;;
2824;SDS011;1420;51.324;12.344;2023-05-10T04:50:58;907.86;;;850.46;;
2824;SDS011;1420;51.324;12.344;2023-05-10T04:53:25;967.58;;;903.08;;
2824;SDS011;1420;51.324;12.344;2023-05-10T04:55:53;882.12;;;824.58;;
2824;SDS011;1420;51.324;12.344;2023-05-10T04:58:20;893.28;;;835.28;;
2824;SDS011;1420;51.324;12.344;2023-05-10T05:00:47;928.16;;;864.52;;
2824;SDS011;1420;51.324;12.344;2023-05-10T05:03:15;956.70;;;894.22;;
2824;SDS011;1420;51.324;12.344;2023-05-10T05:05:43;901.34;;;843.90;;
2824;SDS011;1420;51.324;12.344;2023-05-10T05:08:10;897.84;;;842.96;;
2824;SDS011;1420;51.324;12.344;2023-05-10T05:10:38;855.64;;;803.08;;
2824;SDS011;1420;51.324;12.344;2023-05-10T05:13:05;898.86;;;841.64;;
2824;SDS011;1420;51.324;12.344;2023-05-10T05:15:32;908.62;;;852.02;;
2824;SDS011;1420;51.324;12.344;2023-05-10T05:17:59;959.10;;;892.80;;
2824;SDS011;1420;51.324;12.344;2023-05-10T05:20:27;986.60;;;918.18;;
2824;SDS011;1420;51.324;12.344;2023-05-10T05:22:55;950.20;;;885.20;;
2824;SDS011;1420;51.324;12.344;2023-05-10T05:25:23;893.94;;;838.62;;
2824;SDS011;1420;51.324;12.344;2023-05-10T05:27:50;956.86;;;893.20;;
2824;SDS011;1420;51.324;12.344;2023-05-10T05:30:17;863.80;;;809.30;;
2824;SDS011;1420;51.324;12.344;2023-05-10T05:32:44;897.78;;;839.82;;
2824;SDS011;1420;51.324;12.344;2023-05-10T05:35:12;962.56;;;897.42;;
2824;SDS011;1420;51.324;12.344;2023-05-10T05:37:39;909.24;;;850.72;;
2824;SDS011;1420;51.324;12.344;2023-05-10T05:40:06;933.98;;;873.88;;
2824;SDS011;1420;51.324;12.344;2023-05-10T05:42:34;932.50;;;872.62;;
2824;SDS011;1420;51.324;12.344;2023-05-10T05:45:02;1053.88;;;973.98;;
2824;SDS011;1420;51.324;12.344;2023-05-10T05:47:29;937.14;;;874.16;;
2824;SDS011;1420;51.324;12.344;2023-05-10T05:49:56;927.48;;;867.08;;
2824;SDS011;1420;51.324;12.344;2023-05-10T05:52:23;1058.54;;;970.50;;
2824;SDS011;1420;51.324;12.344;2023-05-10T05:54:50;886.20;;;828.98;;
2824;SDS011;1420;51.324;12.344;2023-05-10T05:57:19;910.50;;;853.10;;
2824;SDS011;1420;51.324;12.344;2023-05-10T05:59:46;956.76;;;895.36;;
2824;SDS011;1420;51.324;12.344;2023-05-10T06:02:14;984.84;;;916.06;;
2824;SDS011;1420;51.324;12.344;2023-05-10T06:04:41;978.94;;;913.58;;
2824;SDS011;1420;51.324;12.344;2023-05-10T06:07:08;912.40;;;853.54;;
2824;SDS011;1420;51.324;12.344;2023-05-10T06:09:36;923.30;;;864.76;;
2824;SDS011;1420;51.324;12.344;2023-05-10T06:12:03;947.28;;;886.74;;
2824;SDS011;1420;51.324;12.344;2023-05-10T06:14:31;906.46;;;848.56;;
2824;SDS011;1420;51.324;12.344;2023-05-10T06:16:59;961.48;;;899.06;;
2824;SDS011;1420;51.324;12.344;2023-05-10T06:19:27;911.64;;;854.08;;
2824;SDS011;1420;51.324;12.344;2023-05-10T06:21:54;945.44;;;883.98;;
2824;SDS011;1420;51.324;12.344;2023-05-10T06:24:21;973.86;;;908.52;;
2824;SDS011;1420;51.324;12.344;2023-05-10T06:26:48;989.02;;;924.26;;
2824;SDS011;1420;51.324;12.344;2023-05-10T06:29:16;988.96;;;921.68;;
2824;SDS011;1420;51.324;12.344;2023-05-10T06:31:44;1027.98;;;957.38;;
2824;SDS011;1420;51.324;12.344;2023-05-10T06:34:11;1043.24;;;971.06;;
2824;SDS011;1420;51.324;12.344;2023-05-10T06:36:39;1012.66;;;940.12;;
2824;SDS011;1420;51.324;12.344;2023-05-10T06:39:06;1012.30;;;941.36;;
2824;SDS011;1420;51.324;12.344;2023-05-10T06:41:33;1029.14;;;954.24;;
2824;SDS011;1420;51.324;12.344;2023-05-10T06:44:00;1026.56;;;953.38;;
2824;SDS011;1420;51.324;12.344;2023-05-10T06:46:27;1050.84;;;973.40;;
2824;SDS011;1420;51.324;12.344;2023-05-10T06:48:55;1042.64;;;965.66;;
2824;SDS011;1420;51.324;12.344;2023-05-10T06:51:23;1075.18;;;995.52;;
2824;SDS011;1420;51.324;12.344;2023-05-10T06:53:50;1091.30;;;999.90;;
2824;SDS011;1420;51.324;12.344;2023-05-10T06:56:17;1088.24;;;999.62;;
2824;SDS011;1420;51.324;12.344;2023-05-10T06:58:44;1082.72;;;999.50;;
2824;SDS011;1420;51.324;12.344;2023-05-10T07:01:12;1082.46;;;998.34;;
2824;SDS011;1420;51.324;12.344;2023-05-10T07:03:39;1066.62;;;986.80;;
2824;SDS011;1420;51.324;12.344;2023-05-10T07:06:07;1106.82;;;999.90;;
2824;SDS011;1420;51.324;12.344;2023-05-10T07:08:34;1074.12;;;991.44;;
2824;SDS011;1420;51.324;12.344;2023-05-10T07:11:02;1109.56;;;999.90;;
2824;SDS011;1420;51.324;12.344;2023-05-10T07:13:30;1076.86;;;996.36;;
2824;SDS011;1420;51.324;12.344;2023-05-10T07:15:58;1041.14;;;966.30;;
2824;SDS011;1420;51.324;12.344;2023-05-10T07:18:25;997.66;;;927.24;;
2824;SDS011;1420;51.324;12.344;2023-05-10T07:20:52;1055.80;;;978.48;;
2824;SDS011;1420;51.324;12.344;2023-05-10T07:23:20;1049.22;;;973.10;;
2824;SDS011;1420;51.324;12.344;2023-05-10T07:25:48;1067.66;;;987.94;;
2824;SDS011;1420;51.324;12.344;2023-05-10T07:28:15;1068.52;;;988.24;;
2824;SDS011;1420;51.324;12.344;2023-05-10T07:30:43;1083.86;;;998.10;;
2824;SDS011;1420;51.324;12.344;2023-05-10T07:33:12;1090.52;;;999.90;;
2824;SDS011;1420;51.324;12.344;2023-05-10T07:35:38;1135.64;;;999.90;;
2824;SDS011;1420;51.324;12.344;2023-05-10T07:38:05;1152.96;;;999.90;;
2824;SDS011;1420;51.324;12.344;2023-05-10T07:40:32;1117.06;;;999.90;;
2824;SDS011;1420;51.324;12.344;2023-05-10T07:43:00;1132.14;;;999.90;;
2824;SDS011;1420;51.324;12.344;2023-05-10T07:45:27;1143.30;;;999.90;;
2824;SDS011;1420;51.324;12.344;2023-05-10T07:47:54;1147.26;;;999.90;;
2824;SDS011;1420;51.324;12.344;2023-05-10T07:50:21;1081.92;;;997.12;;
2824;SDS011;1420;51.324;12.344;2023-05-10T07:52:48;1094.06;;;999.50;;
2824;SDS011;1420;51.324;12.344;2023-05-10T07:55:16;1085.04;;;999.16;;
2824;SDS011;1420;51.324;12.344;2023-05-10T07:57:44;1082.60;;;997.02;;
2824;SDS011;1420;51.324;12.344;2023-05-10T08:00:12;1048.86;;;970.50;;
2824;SDS011;1420;51.324;12.344;2023-05-10T08:02:40;1062.98;;;982.46;;
2824;SDS011;1420;51.324;12.344;2023-05-10T08:05:07;1067.66;;;987.96;;
2824;SDS011;1420;51.324;12.344;2023-05-10T08:07:34;1090.62;;;999.22;;
2824;SDS011;1420;51.324;12.344;2023-05-10T08:10:02;1112.86;;;999.90;;
2824;SDS011;1420;51.324;12.344;2023-05-10T08:12:30;1072.46;;;988.50;;
2824;SDS011;1420;51.324;12.344;2023-05-10T08:14:58;1129.00;;;999.90;;
2824;SDS011;1420;51.324;12.344;2023-05-10T08:17:25;1129.12;;;999.90;;
2824;SDS011;1420;51.324;12.344;2023-05-10T08:19:52;1090.74;;;999.90;;
2824;SDS011;1420;51.324;12.344;2023-05-10T08:22:19;1114.14;;;999.90;;
2824;SDS011;1420;51.324;12.344;2023-05-10T08:24:47;1108.50;;;999.90;;
2824;SDS011;1420;51.324;12.344;2023-05-10T08:27:14;1094.96;;;999.90;;
2824;SDS011;1420;51.324;12.344;2023-05-10T08:29:41;1075.98;;;990.38;;
2824;SDS011;1420;51.324;12.344;2023-05-10T08:32:08;1079.44;;;993.40;;
2824;SDS011;1420;51.324;12.344;2023-05-10T08:34:36;1140.72;;;999.90;;
2824;SDS011;1420;51.324;12.344;2023-05-10T08:37:03;1062.86;;;980.62;;
2824;SDS011;1420;51.324;12.344;2023-05-10T08:39:33;1050.54;;;968.06;;
2824;SDS011;1420;51.324;12.344;2023-05-10T08:41:57;1044.00;;;967.34;;
2824;SDS011;1420;51.324;12.344;2023-05-10T08:44:25;1097.14;;;999.90;;
2824;SDS011;1420;51.324;12.344;2023-05-10T08:46:53;1020.50;;;945.10;;
2824;SDS011;1420;51.324;12.344;2023-05-10T08:49:20;1002.26;;;934.44;;
2824;SDS011;1420;51.324;12.344;2023-05-10T08:51:49;986.12;;;915.64;;
2824;SDS011;1420;51.324;12.344;2023-05-10T08:54:14;999.18;;;928.76;;
2824;SDS011;1420;51.324;12.344;2023-05-10T08:56:41;1032.68;;;958.10;;
2824;SDS011;1420;51.324;12.344;2023-05-10T08:59:08;1050.26;;;974.38;;
2824;SDS011;1420;51.324;12.344;2023-05-10T09:01:36;1012.02;;;942.04;;
2824;SDS011;1420;51.324;12.344;2023-05-10T09:04:03;947.02;;;883.86;;
2824;SDS011;1420;51.324;12.344;2023-05-10T09:06:30;921.90;;;863.24;;
2824;SDS011;1420;51.324;12.344;2023-05-10T09:08:57;956.74;;;894.38;;
2824;SDS011;1420;51.324;12.344;2023-05-10T09:11:25;932.72;;;866.62;;
2824;SDS011;1420;51.324;12.344;2023-05-10T09:13:52;891.16;;;834.78;;
2824;SDS011;1420;51.324;12.344;2023-05-10T09:16:19;801.34;;;754.54;;
2824;SDS011;1420;51.324;12.344;2023-05-10T09:18:46;861.64;;;811.24;;
2824;SDS011;1420;51.324;12.344;2023-05-10T09:21:14;729.22;;;685.84;;
2824;SDS011;1420;51.324;12.344;2023-05-10T09:23:43;839.58;;;785.28;;
2824;SDS011;1420;51.324;12.344;2023-05-10T09:26:10;818.64;;;761.78;;
2824;SDS011;1420;51.324;12.344;2023-05-10T09:31:18;833.78;;;776.70;;
2824;SDS011;1420;51.324;12.344;2023-05-10T09:33:46;851.34;;;797.02;;
2824;SDS011;1420;51.324;12.344;2023-05-10T09:36:13;954.86;;;879.70;;
2824;SDS011;1420;51.324;12.344;2023-05-10T09:38:46;953.32;;;879.22;;
2824;SDS011;1420;51.324;12.344;2023-05-10T09:41:16;1010.38;;;931.16;;
2824;SDS011;1420;51.324;12.344;2023-05-10T09:43:44;1074.50;;;983.82;;
2824;SDS011;1420;51.324;12.344;2023-05-10T09:46:12;1043.46;;;953.34;;
2824;SDS011;1420;51.324;12.344;2023-05-10T09:48:44;1022.44;;;936.98;;
2824;SDS011;1420;51.324;12.344;2023-05-10T09:51:17;997.78;;;919.10;;
2824;SDS011;1420;51.324;12.344;2023-05-10T09:56:33;1049.84;;;959.38;;
2824;SDS011;1420;51.324;12.344;2023-05-10T09:59:02;1163.78;;;999.90;;
2824;SDS011;1420;51.324;12.344;2023-05-10T10:01:29;1098.22;;;996.86;;
2824;SDS011;1420;51.324;12.344;2023-05-10T10:03:57;1092.14;;;993.26;;
2824;SDS011;1420;51.324;12.344;2023-05-10T10:06:24;1180.24;;;999.90;;
2824;SDS011;1420;51.324;12.344;2023-05-10T10:08:51;1016.74;;;931.26;;
2824;SDS011;1420;51.324;12.344;2023-05-10T10:11:18;1102.46;;;997.78;;
2824;SDS011;1420;51.324;12.344;2023-05-10T10:13:45;1140.62;;;999.90;;
2824;SDS011;1420;51.324;12.344;2023-05-10T10:16:13;1116.20;;;999.90;;
2824;SDS011;1420;51.324;12.344;2023-05-10T10:18:40;1028.44;;;946.44;;
2824;SDS011;1420;51.324;12.344;2023-05-10T10:21:07;982.42;;;907.78;;
2824;SDS011;1420;51.324;12.344;2023-05-10T10:23:34;1120.34;;;999.90;;
2824;SDS011;1420;51.324;12.344;2023-05-10T10:26:02;1122.16;;;999.90;;
2824;SDS011;1420;51.324;12.344;2023-05-10T10:28:35;1181.68;;;999.90;;
2824;SDS011;1420;51.324;12.344;2023-05-10T10:34:03;1067.54;;;978.22;;
2824;SDS011;1420;51.324;12.344;2023-05-10T10:36:30;1049.72;;;955.50;;
2824;SDS011;1420;51.324;12.344;2023-05-10T10:38:58;1029.98;;;947.50;;
2824;SDS011;1420;51.324;12.344;2023-05-10T10:41:30;1078.46;;;982.66;;
2824;SDS011;1420;51.324;12.344;2023-05-10T10:46:46;1105.96;;;991.66;;
2824;SDS011;1420;51.324;12.344;2023-05-10T10:49:08;1096.50;;;990.58;;
2824;SDS011;1420;51.324;12.344;2023-05-10T10:51:37;1002.78;;;923.74;;
2824;SDS011;1420;51.324;12.344;2023-05-10T10:54:10;981.26;;;894.54;;
2824;SDS011;1420;51.324;12.344;2023-05-10T10:56:37;992.40;;;910.68;;
2824;SDS011;1420;51.324;12.344;2023-05-10T10:59:04;1033.46;;;947.22;;
2824;SDS011;1420;51.324;12.344;2023-05-10T11:01:32;1086.06;;;984.00;;
2824;SDS011;1420;51.324;12.344;2023-05-10T11:06:43;1035.00;;;942.36;;
2824;SDS011;1420;51.324;12.344;2023-05-10T11:09:10;1088.38;;;989.22;;
2824;SDS011;1420;51.324;12.344;2023-05-10T11:14:17;977.84;;;899.82;;
2824;SDS011;1420;51.324;12.344;2023-05-10T11:16:43;936.62;;;856.88;;
2824;SDS011;1420;51.324;12.344;2023-05-10T11:19:10;850.76;;;786.50;;
2824;SDS011;1420;51.324;12.344;2023-05-10T11:24:13;867.94;;;802.92;;
2824;SDS011;1420;51.324;12.344;2023-05-10T11:26:41;802.78;;;742.24;;
2824;SDS011;1420;51.324;12.344;2023-05-10T11:29:09;916.60;;;841.34;;
2824;SDS011;1420;51.324;12.344;2023-05-10T11:31:41;1018.20;;;933.02;;
2824;SDS011;1420;51.324;12.344;2023-05-10T11:34:05;896.26;;;827.54;;
2824;SDS011;1420;51.324;12.344;2023-05-10T11:36:33;963.86;;;880.38;;
2824;SDS011;1420;51.324;12.344;2023-05-10T11:38:59;874.04;;;805.30;;
2824;SDS011;1420;51.324;12.344;2023-05-10T11:41:27;851.30;;;784.26;;
2824;SDS011;1420;51.324;12.344;2023-05-10T11:43:54;927.82;;;845.44;;
2824;SDS011;1420;51.324;12.344;2023-05-10T11:46:23;1045.92;;;950.90;;
2824;SDS011;1420;51.324;12.344;2023-05-10T11:48:51;1013.00;;;923.32;;
2824;SDS011;1420;51.324;12.344;2023-05-10T11:51:20;1012.28;;;923.62;;
2824;SDS011;1420;51.324;12.344;2023-05-10T11:53:47;857.10;;;781.14;;
2824;SDS011;1420;51.324;12.344;2023-05-10T11:56:15;759.92;;;700.00;;
2824;SDS011;1420;51.324;12.344;2023-05-10T11:58:42;760.90;;;700.78;;
2824;SDS011;1420;51.324;12.344;2023-05-10T12:01:09;806.76;;;742.42;;
2824;SDS011;1420;51.324;12.344;2023-05-10T12:03:37;922.98;;;834.04;;
2824;SDS011;1420;51.324;12.344;2023-05-10T12:06:05;991.14;;;896.36;;
2824;SDS011;1420;51.324;12.344;2023-05-10T12:08:32;1141.18;;;999.90;;
2824;SDS011;1420;51.324;12.344;2023-05-10T12:11:04;797.26;;;733.78;;
2824;SDS011;1420;51.324;12.344;2023-05-10T12:13:31;775.80;;;714.00;;
2824;SDS011;1420;51.324;12.344;2023-05-10T12:15:59;998.94;;;907.54;;
2824;SDS011;1420;51.324;12.344;2023-05-10T12:18:26;762.62;;;706.24;;
2824;SDS011;1420;51.324;12.344;2023-05-10T12:20:54;794.24;;;729.86;;
2824;SDS011;1420;51.324;12.344;2023-05-10T12:23:21;689.18;;;639.92;;
2824;SDS011;1420;51.324;12.344;2023-05-10T12:25:49;766.80;;;708.12;;
2824;SDS011;1420;51.324;12.344;2023-05-10T12:28:16;839.82;;;761.34;;
2824;SDS011;1420;51.324;12.344;2023-05-10T12:30:43;706.86;;;659.26;;
2824;SDS011;1420;51.324;12.344;2023-05-10T12:33:11;797.34;;;740.40;;
2824;SDS011;1420;51.324;12.344;2023-05-10T12:35:44;909.88;;;838.68;;
2824;SDS011;1420;51.324;12.344;2023-05-10T12:40:53;852.98;;;784.98;;
2824;SDS011;1420;51.324;12.344;2023-05-10T12:43:20;777.80;;;719.50;;
2824;SDS011;1420;51.324;12.344;2023-05-10T12:45:48;1031.26;;;920.32;;
2824;SDS011;1420;51.324;12.344;2023-05-10T12:48:15;881.14;;;810.44;;
2824;SDS011;1420;51.324;12.344;2023-05-10T12:50:43;894.80;;;827.48;;
2824;SDS011;1420;51.324;12.344;2023-05-10T12:53:13;910.62;;;838.38;;
2824;SDS011;1420;51.324;12.344;2023-05-10T12:55:40;949.08;;;876.34;;
2824;SDS011;1420;51.324;12.344;2023-05-10T12:58:08;885.78;;;820.30;;
2824;SDS011;1420;51.324;12.344;2023-05-10T13:00:35;815.54;;;752.44;;
2824;SDS011;1420;51.324;12.344;2023-05-10T13:03:04;916.30;;;841.32;;
2824;SDS011;1420;51.324;12.344;2023-05-10T13:05:33;848.30;;;779.96;;
2824;SDS011;1420;51.324;12.344;2023-05-10T13:08:00;1036.48;;;945.46;;
2824;SDS011;1420;51.324;12.344;2023-05-10T13:10:29;901.56;;;839.58;;
2824;SDS011;1420;51.324;12.344;2023-05-10T13:12:55;819.38;;;758.92;;
2824;SDS011;1420;51.324;12.344;2023-05-10T13:15:23;993.08;;;913.10;;
2824;SDS011;1420;51.324;12.344;2023-05-10T13:17:50;919.22;;;855.42;;
2824;SDS011;1420;51.324;12.344;2023-05-10T13:20:18;883.30;;;822.02;;
2824;SDS011;1420;51.324;12.344;2023-05-10T13:22:45;920.66;;;856.60;;
2824;SDS011;1420;51.324;12.344;2023-05-10T13:25:13;867.58;;;807.80;;
2824;SDS011;1420;51.324;12.344;2023-05-10T13:27:41;811.80;;;753.92;;
2824;SDS011;1420;51.324;12.344;2023-05-10T13:30:08;884.48;;;826.98;;
2824;SDS011;1420;51.324;12.344;2023-05-10T13:32:36;958.92;;;883.32;;
2824;SDS011;1420;51.324;12.344;2023-05-10T13:35:03;967.28;;;892.38;;
2824;SDS011;1420;51.324;12.344;2023-05-10T13:37:31;1025.60;;;945.26;;
2824;SDS011;1420;51.324;12.344;2023-05-10T13:39:58;974.88;;;897.02;;
2824;SDS011;1420;51.324;12.344;2023-05-10T13:42:25;947.14;;;868.74;;
2824;SDS011;1420;51.324;12.344;2023-05-10T13:44:52;972.16;;;901.50;;
2824;SDS011;1420;51.324;12.344;2023-05-10T13:47:19;1023.62;;;930.56;;
2824;SDS011;1420;51.324;12.344;2023-05-10T13:49:47;912.08;;;835.90;;
2824;SDS011;1420;51.324;12.344;2023-05-10T13:52:14;839.66;;;772.80;;
2824;SDS011;1420;51.324;12.344;2023-05-10T13:54:42;958.68;;;874.86;;
2824;SDS011;1420;51.324;12.344;2023-05-10T13:57:09;942.72;;;864.54;;
2824;SDS011;1420;51.324;12.344;2023-05-10T13:59:36;895.02;;;830.62;;
2824;SDS011;1420;51.324;12.344;2023-05-10T14:02:03;909.76;;;840.74;;
2824;SDS011;1420;51.324;12.344;2023-05-10T14:04:31;838.20;;;776.90;;
2824;SDS011;1420;51.324;12.344;2023-05-10T14:06:58;878.66;;;811.08;;
2824;SDS011;1420;51.324;12.344;2023-05-10T14:09:25;864.34;;;798.86;;
2824;SDS011;1420;51.324;12.344;2023-05-10T14:11:53;796.44;;;735.74;;
2824;SDS011;1420;51.324;12.344;2023-05-10T14:14:21;954.96;;;879.06;;
2824;SDS011;1420;51.324;12.344;2023-05-10T14:16:48;786.10;;;730.76;;
2824;SDS011;1420;51.324;12.344;2023-05-10T14:19:15;812.86;;;752.64;;
2824;SDS011;1420;51.324;12.344;2023-05-10T14:21:43;878.60;;;811.46;;
2824;SDS011;1420;51.324;12.344;2023-05-10T14:24:11;817.36;;;751.98;;
2824;SDS011;1420;51.324;12.344;2023-05-10T14:26:38;821.28;;;759.22;;
2824;SDS011;1420;51.324;12.344;2023-05-10T14:29:05;840.14;;;776.78;;
2824;SDS011;1420;51.324;12.344;2023-05-10T14:31:32;854.04;;;796.38;;
2824;SDS011;1420;51.324;12.344;2023-05-10T14:33:59;851.28;;;781.78;;